sensor_id;sensor_type;location;lat;lon;timestamp;pressure;altitude;pressure_sealevel;temperature;humidity
5954;BME280;3002;42.642;24.812;2023-03-01T00:02:17;97112.34;;;8.97;100.00
5954;BME280;3002;42.642;24.812;2023-03-01T00:04:42;97103.53;;;9.02;100.00
5954;BME280;3002;42.642;24.812;2023-03-01T00:07:08;97091.94;;;9.54;100.00
5954;BME280;3002;42.642;24.812;2023-03-01T00:09:33;97045.06;;;9.36;100.00
5954;BME280;3002;42.642;24.812;2023-03-01T00:11:58;97071.59;;;9.63;100.00
5954;BME280;3002;42.642;24.812;2023-03-01T00:14:24;97063.84;;;9.72;100.00
5954;BME280;3002;42.642;24.812;2023-03-01T00:16:49;97084.22;;;9.78;100.00
5954;BME280;3002;42.642;24.812;2023-03-01T00:19:19;97078.53;;;9.49;100.00
5954;BME280;3002;42.642;24.812;2023-03-01T00:21:47;97083.78;;;9.13;100.00
5954;BME280;3002;42.642;24.812;2023-03-01T00:24:13;97071.59;;;9.63;100.00
5954;BME280;3002;42.642;24.812;2023-03-01T00:26:39;97085.78;;;9.69;100.00
5954;BME280;3002;42.642;24.812;2023-03-01T00:29:05;97047.44;;;9.32;100.00
5954;BME280;3002;42.642;24.812;2023-03-01T00:31:32;97088.19;;;9.55;100.00
5954;BME280;3002;42.642;24.812;2023-03-01T00:34:04;97089.00;;;9.71;100.00
5954;BME280;3002;42.642;24.812;2023-03-01T00:36:33;97098.59;;;9.46;100.00
5954;BME280;3002;42.642;24.812;2023-03-01T00:38:59;97073.66;;;9.35;100.00
5954;BME280;3002;42.642;24.812;2023-03-01T00:41:24;97074.56;;;9.67;100.00
5954;BME280;3002;42.642;24.812;2023-03-01T00:43:52;97083.88;;;9.49;100.00
5954;BME280;3002;42.642;24.812;2023-03-01T00:46:24;97065.09;;;9.33;100.00
5954;BME280;3002;42.642;24.812;2023-03-01T00:48:50;97075.25;;;9.26;100.00
5954;BME280;3002;42.642;24.812;2023-03-01T00:51:21;97102.34;;;9.50;100.00
5954;BME280;3002;42.642;24.812;2023-03-01T00:53:47;97092.97;;;9.43;100.00
5954;BME280;3002;42.642;24.812;2023-03-01T00:56:15;97102.88;;;9.47;100.00
5954;BME280;3002;42.642;24.812;2023-03-01T00:58:41;97101.81;;;9.58;100.00
5954;BME280;3002;42.642;24.812;2023-03-01T01:01:08;97101.47;;;9.29;100.00
5954;BME280;3002;42.642;24.812;2023-03-01T01:06:19;97105.78;;;8.73;100.00
5954;BME280;3002;42.642;24.812;2023-03-01T01:08:46;97095.84;;;8.63;100.00
5954;BME280;3002;42.642;24.812;2023-03-01T01:11:13;97095.53;;;8.54;100.00
5954;BME280;3002;42.642;24.812;2023-03-01T01:13:39;97090.50;;;9.21;100.00
5954;BME280;3002;42.642;24.812;2023-03-01T01:16:05;97081.88;;;9.03;100.00
5954;BME280;3002;42.642;24.812;2023-03-01T01:18:31;97066.69;;;9.19;100.00
5954;BME280;3002;42.642;24.812;2023-03-01T01:20:57;97060.19;;;9.05;100.00
5954;BME280;3002;42.642;24.812;2023-03-01T01:23:23;97067.16;;;9.01;100.00
5954;BME280;3002;42.642;24.812;2023-03-01T01:25:48;97069.03;;;9.10;100.00
5954;BME280;3002;42.642;24.812;2023-03-01T01:28:14;97069.22;;;8.83;100.00
5954;BME280;3002;42.642;24.812;2023-03-01T01:30:39;97066.00;;;8.87;100.00
5954;BME280;3002;42.642;24.812;2023-03-01T01:33:04;97053.91;;;8.74;100.00
5954;BME280;3002;42.642;24.812;2023-03-01T01:35:30;97048.50;;;8.58;100.00
5954;BME280;3002;42.642;24.812;2023-03-01T01:37:55;97062.78;;;8.79;100.00
5954;BME280;3002;42.642;24.812;2023-03-01T01:40:21;97040.81;;;8.72;100.00
5954;BME280;3002;42.642;24.812;2023-03-01T01:42:46;97037.38;;;8.77;100.00
5954;BME280;3002;42.642;24.812;2023-03-01T01:47:50;97051.13;;;8.48;100.00
5954;BME280;3002;42.642;24.812;2023-03-01T01:50:17;97065.47;;;8.84;100.00
5954;BME280;3002;42.642;24.812;2023-03-01T01:52:44;97037.75;;;8.48;100.00
5954;BME280;3002;42.642;24.812;2023-03-01T01:55:15;97045.44;;;8.92;100.00
5954;BME280;3002;42.642;24.812;2023-03-01T01:57:45;97083.84;;;8.28;100.00
5954;BME280;3002;42.642;24.812;2023-03-01T02:00:23;97076.41;;;8.78;100.00
5954;BME280;3002;42.642;24.812;2023-03-01T02:02:53;97051.16;;;8.53;100.00
5954;BME280;3002;42.642;24.812;2023-03-01T02:08:18;97062.72;;;9.42;100.00
5954;BME280;3002;42.642;24.812;2023-03-01T02:10:45;97077.44;;;9.39;100.00
5954;BME280;3002;42.642;24.812;2023-03-01T02:13:11;97064.28;;;9.28;100.00
5954;BME280;3002;42.642;24.812;2023-03-01T02:15:39;97069.53;;;8.97;100.00
5954;BME280;3002;42.642;24.812;2023-03-01T02:18:06;97077.09;;;9.21;100.00
5954;BME280;3002;42.642;24.812;2023-03-01T02:23:22;97052.00;;;9.47;100.00
5954;BME280;3002;42.642;24.812;2023-03-01T02:28:36;97061.03;;;9.16;100.00
5954;BME280;3002;42.642;24.812;2023-03-01T02:31:07;97063.31;;;8.81;100.00
5954;BME280;3002;42.642;24.812;2023-03-01T02:33:52;97077.31;;;8.46;100.00
5954;BME280;3002;42.642;24.812;2023-03-01T02:36:21;97054.13;;;8.20;100.00
5954;BME280;3002;42.642;24.812;2023-03-01T02:38:50;97069.19;;;8.78;100.00
5954;BME280;3002;42.642;24.812;2023-03-01T02:41:19;97060.34;;;8.73;100.00
5954;BME280;3002;42.642;24.812;2023-03-01T02:43:45;97068.72;;;8.92;100.00
5954;BME280;3002;42.642;24.812;2023-03-01T02:46:19;97054.59;;;9.06;100.00
5954;BME280;3002;42.642;24.812;2023-03-01T02:48:54;97053.31;;;9.24;100.00
5954;BME280;3002;42.642;24.812;2023-03-01T02:56:38;97042.34;;;8.21;100.00
5954;BME280;3002;42.642;24.812;2023-03-01T02:59:04;97024.25;;;8.70;100.00
5954;BME280;3002;42.642;24.812;2023-03-01T03:01:30;97048.19;;;8.50;100.00
5954;BME280;3002;42.642;24.812;2023-03-01T03:04:05;97048.25;;;8.60;100.00
5954;BME280;3002;42.642;24.812;2023-03-01T03:06:31;97033.63;;;7.93;100.00
5954;BME280;3002;42.642;24.812;2023-03-01T03:08:57;97064.00;;;7.82;100.00
5954;BME280;3002;42.642;24.812;2023-03-01T03:11:23;97060.44;;;8.09;100.00
5954;BME280;3002;42.642;24.812;2023-03-01T03:13:48;97048.28;;;8.23;100.00
5954;BME280;3002;42.642;24.812;2023-03-01T03:16:14;97034.78;;;8.45;100.00
5954;BME280;3002;42.642;24.812;2023-03-01T03:18:40;97027.75;;;8.86;100.00
5954;BME280;3002;42.642;24.812;2023-03-01T03:21:10;97047.88;;;8.94;100.00
5954;BME280;3002;42.642;24.812;2023-03-01T03:23:36;97050.06;;;9.07;100.00
5954;BME280;3002;42.642;24.812;2023-03-01T03:26:03;97051.47;;;9.40;100.00
5954;BME280;3002;42.642;24.812;2023-03-01T03:28:32;97050.91;;;9.33;100.00
5954;BME280;3002;42.642;24.812;2023-03-01T03:30:57;97049.84;;;9.34;100.00
5954;BME280;3002;42.642;24.812;2023-03-01T03:33:23;97033.22;;;9.17;100.00
5954;BME280;3002;42.642;24.812;2023-03-01T03:35:50;97049.88;;;9.44;100.00
5954;BME280;3002;42.642;24.812;2023-03-01T03:38:17;97056.81;;;9.30;100.00
5954;BME280;3002;42.642;24.812;2023-03-01T03:40:54;97055.25;;;9.49;100.00
5954;BME280;3002;42.642;24.812;2023-03-01T03:43:26;97048.28;;;9.48;100.00
5954;BME280;3002;42.642;24.812;2023-03-01T03:46:10;97048.56;;;9.87;100.00
5954;BME280;3002;42.642;24.812;2023-03-01T03:48:38;97042.41;;;9.72;100.00
5954;BME280;3002;42.642;24.812;2023-03-01T03:51:04;97021.72;;;9.26;100.00
5954;BME280;3002;42.642;24.812;2023-03-01T03:53:31;97049.09;;;9.49;100.00
5954;BME280;3002;42.642;24.812;2023-03-01T03:58:59;97048.53;;;9.47;100.00
5954;BME280;3002;42.642;24.812;2023-03-01T04:01:24;97046.38;;;8.61;100.00
5954;BME280;3002;42.642;24.812;2023-03-01T04:03:50;97033.88;;;8.81;100.00
5954;BME280;3002;42.642;24.812;2023-03-01T04:06:19;97053.03;;;9.26;100.00
5954;BME280;3002;42.642;24.812;2023-03-01T04:08:45;97026.22;;;9.10;100.00
5954;BME280;3002;42.642;24.812;2023-03-01T04:11:11;97017.97;;;9.22;100.00
5954;BME280;3002;42.642;24.812;2023-03-01T04:13:54;97012.66;;;9.32;100.00
5954;BME280;3002;42.642;24.812;2023-03-01T04:16:20;97029.22;;;9.29;100.00
5954;BME280;3002;42.642;24.812;2023-03-01T04:18:46;97019.09;;;9.36;100.00
5954;BME280;3002;42.642;24.812;2023-03-01T04:21:12;97026.81;;;9.28;100.00
5954;BME280;3002;42.642;24.812;2023-03-01T04:23:38;97020.88;;;9.10;100.00
5954;BME280;3002;42.642;24.812;2023-03-01T04:26:03;97047.75;;;9.51;100.00
5954;BME280;3002;42.642;24.812;2023-03-01T04:28:32;97036.72;;;9.32;100.00
5954;BME280;3002;42.642;24.812;2023-03-01T04:31:05;97040.72;;;9.20;100.00
5954;BME280;3002;42.642;24.812;2023-03-01T04:33:47;97037.00;;;9.26;100.00
5954;BME280;3002;42.642;24.812;2023-03-01T04:36:15;97001.38;;;9.20;100.00
5954;BME280;3002;42.642;24.812;2023-03-01T04:38:41;97034.63;;;9.50;100.00
5954;BME280;3002;42.642;24.812;2023-03-01T04:41:09;97038.06;;;9.40;100.00
5954;BME280;3002;42.642;24.812;2023-03-01T04:43:35;97008.03;;;9.02;100.00
5954;BME280;3002;42.642;24.812;2023-03-01T04:46:07;97027.38;;;9.30;100.00
5954;BME280;3002;42.642;24.812;2023-03-01T04:48:35;97054.38;;;9.28;100.00
5954;BME280;3002;42.642;24.812;2023-03-01T04:51:01;97047.34;;;8.97;100.00
5954;BME280;3002;42.642;24.812;2023-03-01T04:53:27;97031.34;;;8.49;100.00
5954;BME280;3002;42.642;24.812;2023-03-01T04:55:54;97046.50;;;8.91;100.00
5954;BME280;3002;42.642;24.812;2023-03-01T04:58:22;97043.31;;;8.99;100.00
5954;BME280;3002;42.642;24.812;2023-03-01T05:00:48;97024.25;;;8.80;100.00
5954;BME280;3002;42.642;24.812;2023-03-01T05:03:13;97044.69;;;9.07;100.00
5954;BME280;3002;42.642;24.812;2023-03-01T05:05:44;97052.88;;;8.80;100.00
5954;BME280;3002;42.642;24.812;2023-03-01T05:08:10;97028.03;;;8.84;100.00
5954;BME280;3002;42.642;24.812;2023-03-01T05:10:51;97051.94;;;9.17;100.00
5954;BME280;3002;42.642;24.812;2023-03-01T05:13:19;97022.25;;;9.23;100.00
5954;BME280;3002;42.642;24.812;2023-03-01T05:15:56;97032.72;;;9.25;100.00
5954;BME280;3002;42.642;24.812;2023-03-01T05:18:26;97054.63;;;9.22;100.00
5954;BME280;3002;42.642;24.812;2023-03-01T05:21:08;97040.63;;;8.89;100.00
5954;BME280;3002;42.642;24.812;2023-03-01T05:23:34;97038.28;;;9.08;100.00
5954;BME280;3002;42.642;24.812;2023-03-01T05:26:01;97048.19;;;9.07;100.00
5954;BME280;3002;42.642;24.812;2023-03-01T05:28:29;97043.91;;;9.17;100.00
5954;BME280;3002;42.642;24.812;2023-03-01T05:30:55;97050.00;;;8.97;100.00
5954;BME280;3002;42.642;24.812;2023-03-01T05:33:20;97034.66;;;8.72;100.00
5954;BME280;3002;42.642;24.812;2023-03-01T05:35:48;97027.09;;;8.53;100.00
5954;BME280;3002;42.642;24.812;2023-03-01T05:38:14;97025.84;;;8.71;100.00
5954;BME280;3002;42.642;24.812;2023-03-01T05:40:42;97000.97;;;8.71;100.00
5954;BME280;3002;42.642;24.812;2023-03-01T05:43:09;97051.34;;;8.94;100.00
5954;BME280;3002;42.642;24.812;2023-03-01T05:45:36;97049.78;;;9.08;100.00
5954;BME280;3002;42.642;24.812;2023-03-01T05:48:03;97060.81;;;8.60;100.00
5954;BME280;3002;42.642;24.812;2023-03-01T05:50:32;97047.72;;;8.58;100.00
5954;BME280;3002;42.642;24.812;2023-03-01T05:53:01;97067.56;;;8.72;100.00
5954;BME280;3002;42.642;24.812;2023-03-01T05:55:28;97074.38;;;9.00;100.00
5954;BME280;3002;42.642;24.812;2023-03-01T05:57:54;97033.19;;;8.07;100.00
5954;BME280;3002;42.642;24.812;2023-03-01T06:00:21;97066.34;;;8.48;100.00
5954;BME280;3002;42.642;24.812;2023-03-01T06:02:50;97065.47;;;8.00;100.00
5954;BME280;3002;42.642;24.812;2023-03-01T06:08:38;97063.38;;;8.44;100.00
5954;BME280;3002;42.642;24.812;2023-03-01T06:11:04;97068.56;;;8.24;100.00
5954;BME280;3002;42.642;24.812;2023-03-01T06:13:30;97034.69;;;8.29;100.00
5954;BME280;3002;42.642;24.812;2023-03-01T06:15:55;97045.84;;;8.58;100.00
5954;BME280;3002;42.642;24.812;2023-03-01T06:18:22;97071.28;;;8.66;100.00
5954;BME280;3002;42.642;24.812;2023-03-01T06:20:55;97092.81;;;8.49;100.00
5954;BME280;3002;42.642;24.812;2023-03-01T06:23:22;97045.72;;;8.38;100.00
5954;BME280;3002;42.642;24.812;2023-03-01T06:25:47;97083.00;;;9.23;100.00
5954;BME280;3002;42.642;24.812;2023-03-01T06:28:13;97051.44;;;8.62;100.00
5954;BME280;3002;42.642;24.812;2023-03-01T06:30:38;97072.19;;;8.92;100.00
5954;BME280;3002;42.642;24.812;2023-03-01T06:33:04;97083.59;;;8.30;100.00
5954;BME280;3002;42.642;24.812;2023-03-01T06:35:30;97072.38;;;8.33;100.00
5954;BME280;3002;42.642;24.812;2023-03-01T06:37:57;97083.81;;;9.18;100.00
5954;BME280;3002;42.642;24.812;2023-03-01T06:40:23;97072.06;;;8.67;100.00
5954;BME280;3002;42.642;24.812;2023-03-01T06:42:49;97077.28;;;8.99;100.00
5954;BME280;3002;42.642;24.812;2023-03-01T06:45:17;97067.47;;;9.20;100.00
5954;BME280;3002;42.642;24.812;2023-03-01T06:47:43;97067.50;;;9.35;100.00
5954;BME280;3002;42.642;24.812;2023-03-01T06:50:08;97072.78;;;9.09;100.00
5954;BME280;3002;42.642;24.812;2023-03-01T06:52:34;97090.53;;;9.31;100.00
5954;BME280;3002;42.642;24.812;2023-03-01T06:55:00;97094.53;;;9.33;100.00
5954;BME280;3002;42.642;24.812;2023-03-01T06:57:26;97086.41;;;9.03;100.00
5954;BME280;3002;42.642;24.812;2023-03-01T06:59:52;97093.84;;;8.91;100.00
5954;BME280;3002;42.642;24.812;2023-03-01T07:02:18;97078.97;;;9.20;100.00
5954;BME280;3002;42.642;24.812;2023-03-01T07:04:44;97100.09;;;9.17;100.00
5954;BME280;3002;42.642;24.812;2023-03-01T07:07:10;97034.72;;;8.82;100.00
5954;BME280;3002;42.642;24.812;2023-03-01T07:09:35;97060.72;;;9.02;100.00
5954;BME280;3002;42.642;24.812;2023-03-01T07:12:01;97064.19;;;8.97;100.00
5954;BME280;3002;42.642;24.812;2023-03-01T07:14:27;97059.56;;;8.77;100.00
5954;BME280;3002;42.642;24.812;2023-03-01T07:16:53;97073.81;;;8.41;100.00
5954;BME280;3002;42.642;24.812;2023-03-01T07:19:21;97059.91;;;8.96;100.00
5954;BME280;3002;42.642;24.812;2023-03-01T07:21:48;97033.97;;;8.97;100.00
5954;BME280;3002;42.642;24.812;2023-03-01T07:24:14;97085.59;;;9.02;100.00
5954;BME280;3002;42.642;24.812;2023-03-01T07:26:40;97052.91;;;8.85;100.00
5954;BME280;3002;42.642;24.812;2023-03-01T07:29:07;97100.88;;;9.07;100.00
5954;BME280;3002;42.642;24.812;2023-03-01T07:31:33;97078.66;;;9.11;100.00
5954;BME280;3002;42.642;24.812;2023-03-01T07:33:58;97068.72;;;8.92;100.00
5954;BME280;3002;42.642;24.812;2023-03-01T07:36:24;97069.69;;;8.33;100.00
5954;BME280;3002;42.642;24.812;2023-03-01T07:38:50;97071.03;;;8.73;100.00
5954;BME280;3002;42.642;24.812;2023-03-01T07:41:16;97078.72;;;9.27;100.00
5954;BME280;3002;42.642;24.812;2023-03-01T07:43:41;97069.47;;;8.77;100.00
5954;BME280;3002;42.642;24.812;2023-03-01T07:46:07;97074.38;;;9.10;100.00
5954;BME280;3002;42.642;24.812;2023-03-01T07:48:34;97070.19;;;9.25;100.00
5954;BME280;3002;42.642;24.812;2023-03-01T07:51:00;97079.81;;;9.26;100.00
5954;BME280;3002;42.642;24.812;2023-03-01T07:53:26;97044.50;;;9.24;100.00
5954;BME280;3002;42.642;24.812;2023-03-01T07:56:06;97046.31;;;9.08;100.00
5954;BME280;3002;42.642;24.812;2023-03-01T07:58:34;97082.72;;;9.14;100.00
5954;BME280;3002;42.642;24.812;2023-03-01T08:01:02;97088.09;;;9.29;100.00
5954;BME280;3002;42.642;24.812;2023-03-01T08:03:28;97078.19;;;9.20;100.00
5954;BME280;3002;42.642;24.812;2023-03-01T08:05:54;97077.13;;;9.26;100.00
5954;BME280;3002;42.642;24.812;2023-03-01T08:08:20;97088.19;;;9.70;100.00
5954;BME280;3002;42.642;24.812;2023-03-01T08:10:45;97068.88;;;9.53;100.00
5954;BME280;3002;42.642;24.812;2023-03-01T08:13:11;97059.28;;;9.62;100.00
5954;BME280;3002;42.642;24.812;2023-03-01T08:15:36;97063.84;;;9.67;100.00
5954;BME280;3002;42.642;24.812;2023-03-01T08:18:02;97069.19;;;9.67;100.00
5954;BME280;3002;42.642;24.812;2023-03-01T08:20:27;97031.00;;;8.93;100.00
5954;BME280;3002;42.642;24.812;2023-03-01T08:22:52;97071.78;;;9.31;100.00
5954;BME280;3002;42.642;24.812;2023-03-01T08:25:18;97048.47;;;8.53;100.00
5954;BME280;3002;42.642;24.812;2023-03-01T08:27:43;97079.09;;;9.76;100.00
5954;BME280;3002;42.642;24.812;2023-03-01T08:30:09;97077.22;;;10.07;100.00
5954;BME280;3002;42.642;24.812;2023-03-01T08:32:37;97083.66;;;10.11;100.00
5954;BME280;3002;42.642;24.812;2023-03-01T08:35:03;97027.41;;;9.65;100.00
5954;BME280;3002;42.642;24.812;2023-03-01T08:37:28;97075.63;;;10.06;100.00
5954;BME280;3002;42.642;24.812;2023-03-01T08:39:56;97064.09;;;10.06;100.00
5954;BME280;3002;42.642;24.812;2023-03-01T08:42:21;97063.84;;;9.82;100.00
5954;BME280;3002;42.642;24.812;2023-03-01T08:44:47;97071.09;;;9.97;100.00
5954;BME280;3002;42.642;24.812;2023-03-01T08:47:12;97077.97;;;9.47;100.00
5954;BME280;3002;42.642;24.812;2023-03-01T08:49:39;97061.59;;;9.28;100.00
5954;BME280;3002;42.642;24.812;2023-03-01T08:52:04;97041.47;;;9.05;100.00
5954;BME280;3002;42.642;24.812;2023-03-01T08:54:30;97077.50;;;9.60;100.00
5954;BME280;3002;42.642;24.812;2023-03-01T08:56:55;97070.78;;;10.13;100.00
5954;BME280;3002;42.642;24.812;2023-03-01T08:59:21;97038.91;;;9.71;100.00
5954;BME280;3002;42.642;24.812;2023-03-01T09:01:46;97056.84;;;9.50;100.00
5954;BME280;3002;42.642;24.812;2023-03-01T09:04:12;97070.25;;;9.55;100.00
5954;BME280;3002;42.642;24.812;2023-03-01T09:06:39;97039.16;;;9.39;100.00
5954;BME280;3002;42.642;24.812;2023-03-01T09:09:06;97079.38;;;10.15;100.00
5954;BME280;3002;42.642;24.812;2023-03-01T09:11:33;97080.72;;;9.98;100.00
5954;BME280;3002;42.642;24.812;2023-03-01T09:13:58;97056.63;;;9.72;100.00
5954;BME280;3002;42.642;24.812;2023-03-01T09:16:24;97061.41;;;9.70;100.00
5954;BME280;3002;42.642;24.812;2023-03-01T09:18:51;97059.03;;;9.99;100.00
5954;BME280;3002;42.642;24.812;2023-03-01T09:21:18;97034.38;;;9.61;100.00
5954;BME280;3002;42.642;24.812;2023-03-01T09:23:47;97086.63;;;10.45;100.00
5954;BME280;3002;42.642;24.812;2023-03-01T09:26:15;97068.38;;;10.48;100.00
5954;BME280;3002;42.642;24.812;2023-03-01T09:28:45;97068.66;;;10.41;100.00
5954;BME280;3002;42.642;24.812;2023-03-01T09:31:12;97040.22;;;9.53;100.00
5954;BME280;3002;42.642;24.812;2023-03-01T09:33:38;97035.13;;;9.47;100.00
5954;BME280;3002;42.642;24.812;2023-03-01T09:36:06;97073.19;;;9.54;100.00
5954;BME280;3002;42.642;24.812;2023-03-01T09:38:32;97030.34;;;9.54;100.00
5954;BME280;3002;42.642;24.812;2023-03-01T09:40:59;97064.38;;;10.19;100.00
5954;BME280;3002;42.642;24.812;2023-03-01T09:46:20;97048.81;;;10.52;100.00
5954;BME280;3002;42.642;24.812;2023-03-01T09:48:57;97072.13;;;10.47;100.00
5954;BME280;3002;42.642;24.812;2023-03-01T09:51:30;97047.50;;;10.39;100.00
5954;BME280;3002;42.642;24.812;2023-03-01T09:53:57;97047.63;;;9.05;100.00
5954;BME280;3002;42.642;24.812;2023-03-01T09:59:19;97057.41;;;9.88;100.00
5954;BME280;3002;42.642;24.812;2023-03-01T10:04:48;97044.53;;;10.10;100.00
5954;BME280;3002;42.642;24.812;2023-03-01T10:09:43;97028.75;;;10.24;100.00
5954;BME280;3002;42.642;24.812;2023-03-01T10:12:16;97052.59;;;10.15;100.00
5954;BME280;3002;42.642;24.812;2023-03-01T10:17:46;97043.72;;;9.59;100.00
5954;BME280;3002;42.642;24.812;2023-03-01T10:20:24;97041.81;;;9.39;100.00
5954;BME280;3002;42.642;24.812;2023-03-01T10:22:51;97043.16;;;9.26;100.00
5954;BME280;3002;42.642;24.812;2023-03-01T10:28:31;96999.59;;;8.63;100.00
5954;BME280;3002;42.642;24.812;2023-03-01T10:31:00;97006.75;;;9.41;100.00
5954;BME280;3002;42.642;24.812;2023-03-01T10:33:37;97012.91;;;9.46;100.00
5954;BME280;3002;42.642;24.812;2023-03-01T10:36:05;96977.06;;;9.37;100.00
5954;BME280;3002;42.642;24.812;2023-03-01T10:38:46;96977.34;;;9.61;100.00
5954;BME280;3002;42.642;24.812;2023-03-01T10:41:12;96992.31;;;9.98;100.00
5954;BME280;3002;42.642;24.812;2023-03-01T10:43:52;97019.88;;;10.44;100.00
5954;BME280;3002;42.642;24.812;2023-03-01T10:46:31;97008.59;;;10.47;100.00
5954;BME280;3002;42.642;24.812;2023-03-01T10:49:18;96989.28;;;10.50;100.00
5954;BME280;3002;42.642;24.812;2023-03-01T10:51:46;96989.34;;;10.94;100.00
5954;BME280;3002;42.642;24.812;2023-03-01T10:54:32;96982.84;;;10.51;100.00
5954;BME280;3002;42.642;24.812;2023-03-01T10:56:59;97003.00;;;10.33;100.00
5954;BME280;3002;42.642;24.812;2023-03-01T10:59:34;96983.97;;;10.30;100.00
5954;BME280;3002;42.642;24.812;2023-03-01T11:02:29;96988.84;;;9.87;100.00
5954;BME280;3002;42.642;24.812;2023-03-01T11:04:59;96965.25;;;9.89;100.00
5954;BME280;3002;42.642;24.812;2023-03-01T11:07:26;97002.38;;;10.62;100.00
5954;BME280;3002;42.642;24.812;2023-03-01T11:09:52;96962.66;;;10.69;100.00
5954;BME280;3002;42.642;24.812;2023-03-01T11:12:17;96978.44;;;10.76;100.00
5954;BME280;3002;42.642;24.812;2023-03-01T11:14:52;97004.22;;;10.71;100.00
5954;BME280;3002;42.642;24.812;2023-03-01T11:17:22;96998.16;;;10.40;100.00
5954;BME280;3002;42.642;24.812;2023-03-01T11:22:45;96971.84;;;10.53;100.00
5954;BME280;3002;42.642;24.812;2023-03-01T11:25:13;96972.81;;;10.72;100.00
5954;BME280;3002;42.642;24.812;2023-03-01T11:27:44;96985.72;;;10.65;100.00
5954;BME280;3002;42.642;24.812;2023-03-01T11:35:25;96968.84;;;10.64;100.00
5954;BME280;3002;42.642;24.812;2023-03-01T11:40:34;96958.25;;;10.13;100.00
5954;BME280;3002;42.642;24.812;2023-03-01T11:43:16;96976.69;;;10.45;100.00
5954;BME280;3002;42.642;24.812;2023-03-01T11:45:54;96964.44;;;10.04;100.00
5954;BME280;3002;42.642;24.812;2023-03-01T11:49:31;96957.25;;;9.69;100.00
5954;BME280;3002;42.642;24.812;2023-03-01T11:57:00;96941.09;;;10.19;100.00
5954;BME280;3002;42.642;24.812;2023-03-01T11:59:47;96919.03;;;10.48;100.00
5954;BME280;3002;42.642;24.812;2023-03-01T12:04:52;96940.56;;;10.12;100.00
5954;BME280;3002;42.642;24.812;2023-03-01T12:21:03;96924.97;;;10.89;100.00
5954;BME280;3002;42.642;24.812;2023-03-01T12:29:30;96932.31;;;9.83;100.00
5954;BME280;3002;42.642;24.812;2023-03-01T12:32:18;96937.34;;;10.15;100.00
5954;BME280;3002;42.642;24.812;2023-03-01T12:43:07;96935.19;;;10.23;100.00
5954;BME280;3002;42.642;24.812;2023-03-01T12:50:45;96938.97;;;10.11;100.00
5954;BME280;3002;42.642;24.812;2023-03-01T12:55:50;96948.09;;;10.00;100.00
5954;BME280;3002;42.642;24.812;2023-03-01T12:58:47;96939.22;;;10.15;100.00
5954;BME280;3002;42.642;24.812;2023-03-01T13:01:25;96918.41;;;9.81;100.00
5954;BME280;3002;42.642;24.812;2023-03-01T13:07:29;96950.19;;;10.34;100.00
5954;BME280;3002;42.642;24.812;2023-03-01T13:10:17;96942.16;;;10.34;100.00
5954;BME280;3002;42.642;24.812;2023-03-01T13:17:54;96900.50;;;9.41;100.00
5954;BME280;3002;42.642;24.812;2023-03-01T13:20:23;96908.78;;;9.39;100.00
5954;BME280;3002;42.642;24.812;2023-03-01T13:23:01;96893.78;;;8.93;100.00
5954;BME280;3002;42.642;24.812;2023-03-01T13:25:27;96928.34;;;9.20;100.00
5954;BME280;3002;42.642;24.812;2023-03-01T13:30:58;96937.44;;;9.54;100.00
5954;BME280;3002;42.642;24.812;2023-03-01T13:35:57;96912.81;;;9.47;100.00
5954;BME280;3002;42.642;24.812;2023-03-01T13:38:47;96907.19;;;9.49;100.00
5954;BME280;3002;42.642;24.812;2023-03-01T13:41:17;96867.84;;;9.34;100.00
5954;BME280;3002;42.642;24.812;2023-03-01T13:44:20;96903.44;;;9.29;100.00
5954;BME280;3002;42.642;24.812;2023-03-01T13:46:47;96885.75;;;8.77;100.00
5954;BME280;3002;42.642;24.812;2023-03-01T13:49:16;96898.88;;;9.40;100.00
5954;BME280;3002;42.642;24.812;2023-03-01T13:51:46;96906.66;;;9.47;100.00
5954;BME280;3002;42.642;24.812;2023-03-01T13:54:14;96921.63;;;9.73;100.00
5954;BME280;3002;42.642;24.812;2023-03-01T13:56:41;96916.56;;;9.56;100.00
5954;BME280;3002;42.642;24.812;2023-03-01T13:59:16;96917.59;;;9.71;100.00
5954;BME280;3002;42.642;24.812;2023-03-01T14:01:43;96916.03;;;9.54;100.00
5954;BME280;3002;42.642;24.812;2023-03-01T14:04:35;96924.88;;;9.50;100.00
5954;BME280;3002;42.642;24.812;2023-03-01T14:07:18;96919.75;;;9.53;100.00
5954;BME280;3002;42.642;24.812;2023-03-01T14:09:46;96920.28;;;9.76;100.00
5954;BME280;3002;42.642;24.812;2023-03-01T14:12:19;96922.72;;;9.52;100.00
5954;BME280;3002;42.642;24.812;2023-03-01T14:14:59;96931.16;;;10.25;100.00
5954;BME280;3002;42.642;24.812;2023-03-01T14:20:14;96911.50;;;9.24;100.00
5954;BME280;3002;42.642;24.812;2023-03-01T14:22:41;96919.50;;;9.09;100.00
5954;BME280;3002;42.642;24.812;2023-03-01T14:25:21;96911.75;;;9.33;100.00
5954;BME280;3002;42.642;24.812;2023-03-01T14:28:14;96918.91;;;8.71;100.00
5954;BME280;3002;42.642;24.812;2023-03-01T14:30:49;96924.06;;;9.39;100.00
5954;BME280;3002;42.642;24.812;2023-03-01T14:33:31;96920.28;;;9.71;100.00
5954;BME280;3002;42.642;24.812;2023-03-01T14:36:07;96922.72;;;9.47;100.00
5954;BME280;3002;42.642;24.812;2023-03-01T14:38:45;96925.91;;;9.03;100.00
5954;BME280;3002;42.642;24.812;2023-03-01T14:41:16;96932.06;;;9.03;100.00
5954;BME280;3002;42.642;24.812;2023-03-01T14:43:52;96905.94;;;8.38;100.00
5954;BME280;3002;42.642;24.812;2023-03-01T14:46:30;96929.94;;;9.00;100.00
5954;BME280;3002;42.642;24.812;2023-03-01T14:49:05;96922.66;;;8.80;100.00
5954;BME280;3002;42.642;24.812;2023-03-01T14:51:37;96918.69;;;9.08;100.00
5954;BME280;3002;42.642;24.812;2023-03-01T14:56:50;96871.53;;;8.56;100.00
5954;BME280;3002;42.642;24.812;2023-03-01T14:59:24;96901.56;;;9.09;100.00
5954;BME280;3002;42.642;24.812;2023-03-01T15:01:55;96887.63;;;8.82;100.00
5954;BME280;3002;42.642;24.812;2023-03-01T15:04:22;96891.69;;;9.30;100.00
5954;BME280;3002;42.642;24.812;2023-03-01T15:06:51;96896.47;;;8.98;100.00
5954;BME280;3002;42.642;24.812;2023-03-01T15:09:18;96892.72;;;9.04;100.00
5954;BME280;3002;42.642;24.812;2023-03-01T15:11:44;96878.25;;;8.79;100.00
5954;BME280;3002;42.642;24.812;2023-03-01T15:14:36;96891.91;;;8.93;100.00
5954;BME280;3002;42.642;24.812;2023-03-01T15:17:04;96910.03;;;8.61;100.00
5954;BME280;3002;42.642;24.812;2023-03-01T15:19:30;96907.31;;;8.45;100.00